Time;durP1;ratioP1;P1;durP2;ratioP2;P2;SDS_P1;SDS_P2;PMS_P1;PMS_P2;Temp;Humidity;BMP_temperature;BMP_pressure;BME280_temperature;BME280_humidity;BME280_pressure;Samples;Min_cycle;Max_cycle;Signal;HPM_P1;HPM_P2
2023/04/17 00:01:49;;;;;;;;;4.00;4.00;;;;;11.44;100.00;102280.09;4996492;28;47547;-68
2023/04/17 00:04:15;;;;;;;;;5.00;3.00;;;;;11.46;100.00;102272.69;5004708;28;45458;-69
2023/04/17 00:06:44;;;;;;;;;9.67;6.67;;;;;11.36;100.00;102271.66;4997410;28;46357;-69
2023/04/17 00:09:11;;;;;;;;;7.33;6.00;;;;;11.32;100.00;102279.16;4997098;28;45477;-69
2023/04/17 00:11:36;;;;;;;;;6.00;5.00;;;;;11.19;100.00;102258.44;4998383;28;45490;-69
2023/04/17 00:14:02;;;;;;;;;7.33;6.67;;;;;11.08;100.00;102245.66;5019473;28;45269;-69
2023/04/17 00:16:27;;;;;;;;;9.67;6.33;;;;;11.08;100.00;102250.22;4999934;28;47449;-69
2023/04/17 00:18:53;;;;;;;;;4.67;4.67;;;;;11.12;100.00;102251.72;5003556;28;45399;-69
2023/04/17 00:21:18;;;;;;;;;6.67;6.67;;;;;11.19;100.00;102263.88;4997710;28;45624;-69
2023/04/17 00:23:44;;;;;;;;;6.33;5.00;;;;;11.12;100.00;102254.44;5002896;28;45465;-69
2023/04/17 00:26:10;;;;;;;;;7.67;5.67;;;;;11.13;100.00;102258.91;4998944;28;47251;-69
2023/04/17 00:28:35;;;;;;;;;9.67;6.00;;;;;11.18;100.00;102254.84;5003514;28;45346;-70
2023/04/17 00:31:00;;;;;;;;;8.67;7.00;;;;;11.18;100.00;102254.84;4999434;28;45285;-69
2023/04/17 00:33:26;;;;;;;;;11.67;6.00;;;;;11.16;100.00;102265.00;5001567;28;45382;-68
2023/04/17 00:35:51;;;;;;;;;9.33;5.00;;;;;11.07;100.00;102259.38;5000172;28;47600;-68
2023/04/17 00:38:17;;;;;;;;;8.00;8.00;;;;;11.06;100.00;102258.50;5002120;28;45378;-70
2023/04/17 00:40:44;;;;;;;;;7.33;6.00;;;;;11.05;100.00;102255.88;5002255;28;45795;-71
2023/04/17 00:43:09;;;;;;;;;8.00;8.00;;;;;11.03;100.00;102261.44;5018869;28;45537;-70
2023/04/17 00:45:35;;;;;;;;;8.67;5.00;;;;;11.01;100.00;102263.44;5000678;28;46326;-71
2023/04/17 00:48:04;;;;;;;;;5.67;4.00;;;;;10.89;100.00;102248.88;5018413;28;45349;-68
2023/04/17 00:50:30;;;;;;;;;8.67;4.00;;;;;10.97;100.00;102248.31;5001520;28;45450;-69
2023/04/17 00:52:56;;;;;;;;;7.67;7.67;;;;;10.97;100.00;102252.88;4997205;28;45177;-70
2023/04/17 00:55:21;;;;;;;;;7.33;6.00;;;;;10.92;100.00;102251.38;5001694;28;45927;-70
2023/04/17 00:57:48;;;;;;;;;7.67;7.67;;;;;10.92;100.00;102242.34;4997696;28;45338;-69
2023/04/17 01:00:15;;;;;;;;;7.33;5.00;;;;;10.84;100.00;102245.63;5000931;28;45315;-69
2023/04/17 01:02:41;;;;;;;;;8.67;6.00;;;;;10.72;100.00;102241.13;5032271;28;45493;-70
2023/04/17 01:05:07;;;;;;;;;4.33;4.33;;;;;10.65;100.00;102230.81;5014302;28;47170;-68
2023/04/17 01:07:32;;;;;;;;;5.00;5.00;;;;;10.64;100.00;102237.22;4999468;28;45229;-69
2023/04/17 01:09:58;;;;;;;;;9.00;6.33;;;;;10.60;100.00;102239.28;5001034;28;45413;-69
2023/04/17 01:12:24;;;;;;;;;5.00;3.33;;;;;10.66;100.00;102233.41;4999299;28;45212;-70
2023/04/17 01:14:54;;;;;;;;;6.67;5.67;;;;;10.63;100.00;102233.63;5016194;28;48363;-70
2023/04/17 01:17:20;;;;;;;;;8.00;7.67;;;;;10.71;100.00;102233.94;4998453;28;45524;-69
2023/04/17 01:19:47;;;;;;;;;8.33;5.67;;;;;10.66;100.00;102227.97;5016828;28;45394;-69
2023/04/17 01:22:15;;;;;;;;;8.00;6.00;;;;;10.59;100.00;102223.97;4998596;28;45573;-69
2023/04/17 01:24:40;;;;;;;;;5.33;5.33;;;;;10.57;100.00;102222.34;5016979;28;46132;-70
2023/04/17 01:27:06;;;;;;;;;9.67;9.00;;;;;10.53;100.00;102225.28;5004135;28;45642;-70
2023/04/17 01:29:32;;;;;;;;;9.67;8.00;;;;;10.47;100.00;102216.69;5002238;28;45326;-69
2023/04/17 01:31:58;;;;;;;;;8.00;8.00;;;;;10.48;100.00;102223.88;4997201;28;45594;-70
2023/04/17 01:34:23;;;;;;;;;3.67;3.67;;;;;10.41;100.00;102223.47;5002518;28;45335;-70
2023/04/17 01:36:48;;;;;;;;;7.00;7.00;;;;;10.37;100.00;102230.13;4999386;28;45529;-69
2023/04/17 01:39:14;;;;;;;;;8.67;8.67;;;;;10.33;100.00;102244.88;5002693;28;45324;-69
2023/04/17 01:41:39;;;;;;;;;7.00;5.00;;;;;10.23;100.00;102238.34;5001223;28;45509;-70
2023/04/17 01:44:05;;;;;;;;;9.33;8.00;;;;;10.23;100.00;102240.22;5002133;28;46527;-69
2023/04/17 01:46:30;;;;;;;;;8.00;6.33;;;;;10.24;100.00;102239.22;4999175;28;45515;-70
2023/04/17 01:48:55;;;;;;;;;7.67;7.67;;;;;10.21;100.00;102232.19;5002514;28;45615;-70
2023/04/17 01:51:21;;;;;;;;;9.00;9.00;;;;;10.31;100.00;102243.25;4996017;28;45487;-70
2023/04/17 01:53:46;;;;;;;;;9.00;9.00;;;;;10.28;100.00;102244.34;5035024;28;46500;-70
2023/04/17 01:56:12;;;;;;;;;7.33;6.00;;;;;10.24;100.00;102233.78;5015341;28;45614;-70
2023/04/17 01:58:38;;;;;;;;;7.33;7.33;;;;;10.23;100.00;102245.66;5005889;28;45427;-70
2023/04/17 02:01:04;;;;;;;;;8.00;8.00;;;;;10.15;100.00;102243.47;4999472;28;45220;-69
2023/04/17 02:03:30;;;;;;;;;11.00;10.00;;;;;10.10;100.00;102241.06;5005587;28;45507;-69
2023/04/17 02:05:56;;;;;;;;;9.33;9.33;;;;;10.15;100.00;102244.31;4997329;28;45454;-70
2023/04/17 02:08:21;;;;;;;;;7.33;7.00;;;;;10.08;100.00;102234.84;5005770;28;45473;-69
2023/04/17 02:10:47;;;;;;;;;10.00;8.00;;;;;10.13;100.00;102243.56;4999855;28;45282;-70
2023/04/17 02:13:12;;;;;;;;;8.00;6.67;;;;;10.14;100.00;102237.16;5005523;28;45422;-70
2023/04/17 02:15:37;;;;;;;;;10.00;10.00;;;;;10.05;100.00;102236.94;5014447;28;52574;-69
2023/04/17 02:18:07;;;;;;;;;9.00;9.00;;;;;10.06;100.00;102223.25;5005629;28;45545;-69
2023/04/17 02:20:33;;;;;;;;;9.33;9.00;;;;;10.15;100.00;102238.88;5001357;28;45260;-69
2023/04/17 02:23:00;;;;;;;;;12.00;12.00;;;;;10.18;100.00;102231.53;5005138;28;46563;-69
2023/04/17 02:25:28;;;;;;;;;9.67;8.33;;;;;10.43;100.00;102221.50;5002446;28;45235;-69
2023/04/17 02:27:55;;;;;;;;;12.00;8.00;;;;;10.22;100.00;102233.06;5002215;28;45490;-70
2023/04/17 02:30:24;;;;;;;;;8.33;8.33;;;;;10.49;100.00;102221.06;5001905;28;45553;-69
2023/04/17 02:32:51;;;;;;;;;11.33;8.67;;;;;10.13;100.00;102218.25;5002145;28;46403;-70
2023/04/17 02:35:17;;;;;;;;;11.00;10.33;;;;;10.06;100.00;102227.81;5002815;28;45463;-69
2023/04/17 02:37:43;;;;;;;;;13.67;10.00;;;;;9.98;100.00;102222.06;5004323;28;45534;-70
2023/04/17 02:40:09;;;;;;;;;12.00;9.00;;;;;9.97;100.00;102221.19;5003664;28;45490;-70
2023/04/17 02:42:35;;;;;;;;;10.67;10.00;;;;;9.92;100.00;102220.66;5019998;28;47018;-70
2023/04/17 02:45:00;;;;;;;;;9.00;8.67;;;;;9.98;100.00;102228.34;5017643;28;45292;-69
2023/04/17 02:47:25;;;;;;;;;8.67;8.67;;;;;9.93;100.00;102233.25;4997827;28;45419;-70
2023/04/17 02:49:51;;;;;;;;;9.00;9.00;;;;;9.90;100.00;102233.47;5002610;28;45237;-70
2023/04/17 02:52:17;;;;;;;;;8.75;8.75;;;;;9.91;100.00;102228.91;5030328;28;45473;-69
2023/04/17 02:54:42;;;;;;;;;12.00;8.25;;;;;9.95;100.00;102230.41;5017172;28;45288;-69
2023/04/17 02:57:09;;;;;;;;;11.33;8.00;;;;;10.00;100.00;102228.25;4998555;28;45506;-69
2023/04/17 02:59:34;;;;;;;;;10.33;9.00;;;;;9.95;100.00;102225.84;5006555;28;45498;-69
2023/04/17 03:02:02;;;;;;;;;15.00;11.67;;;;;10.01;100.00;102229.97;4996528;28;47848;-70
2023/04/17 03:04:27;;;;;;;;;14.33;10.33;;;;;9.90;100.00;102228.03;5003930;28;45348;-70
2023/04/17 03:06:52;;;;;;;;;9.50;9.00;;;;;9.77;100.00;102217.16;4998435;28;45643;-69
2023/04/17 03:09:21;;;;;;;;;12.00;10.75;;;;;9.64;100.00;102220.84;5037050;28;45592;-69
2023/04/17 03:11:46;;;;;;;;;8.67;8.67;;;;;9.61;100.00;102227.34;4998312;28;45662;-69
2023/04/17 03:14:11;;;;;;;;;11.67;11.67;;;;;9.57;100.00;102222.25;5002799;28;45364;-69
2023/04/17 03:16:37;;;;;;;;;13.00;10.67;;;;;9.61;100.00;102237.34;5000637;28;45415;-69
2023/04/17 03:19:02;;;;;;;;;11.67;11.67;;;;;9.60;100.00;102231.03;5004624;28;45433;-70
2023/04/17 03:21:28;;;;;;;;;12.00;9.00;;;;;9.55;100.00;102218.78;4998317;28;45480;-69
2023/04/17 03:23:53;;;;;;;;;13.33;8.00;;;;;9.65;100.00;102228.00;5003995;28;45311;-69
2023/04/17 03:26:18;;;;;;;;;11.33;9.33;;;;;9.69;100.00;102224.09;5014853;28;45316;-70
2023/04/17 03:28:44;;;;;;;;;9.00;9.00;;;;;9.62;100.00;102222.78;5003672;28;45238;-70
2023/04/17 03:31:09;;;;;;;;;10.33;9.00;;;;;9.48;100.00;102225.59;5012544;28;47733;-70
2023/04/17 03:33:36;;;;;;;;;13.33;10.67;;;;;9.50;100.00;102221.78;5017826;28;45284;-70
2023/04/17 03:36:02;;;;;;;;;15.67;13.33;;;;;9.60;100.00;102222.03;5000411;28;45480;-70
2023/04/17 03:38:27;;;;;;;;;16.50;15.50;;;;;9.60;100.00;102227.44;5035650;28;45336;-70
2023/04/17 03:40:53;;;;;;;;;14.33;13.67;;;;;9.64;100.00;102231.72;5016889;28;47930;-70
2023/04/17 03:43:18;;;;;;;;;10.33;10.33;;;;;9.68;100.00;102211.50;5004156;28;45391;-70
2023/04/17 03:45:43;;;;;;;;;14.33;12.33;;;;;9.76;100.00;102233.56;5003089;28;45558;-70
2023/04/17 03:48:09;;;;;;;;;14.00;14.00;;;;;9.75;100.00;102240.81;4993235;28;45679;-70
2023/04/17 03:50:34;;;;;;;;;14.75;13.50;;;;;9.74;100.00;102227.34;5017896;28;46247;-70
2023/04/17 03:53:00;;;;;;;;;16.33;14.33;;;;;9.71;100.00;102219.44;4997758;28;45464;-70
2023/04/17 03:55:25;;;;;;;;;18.50;16.00;;;;;9.68;100.00;102238.66;4998345;28;46116;-70
2023/04/17 03:57:50;;;;;;;;;17.25;13.25;;;;;9.78;100.00;102250.63;5029240;28;45556;-70
2023/04/17 04:00:16;;;;;;;;;14.67;12.33;;;;;9.87;100.00;102238.22;5015786;28;48094;-69
2023/04/17 04:02:41;;;;;;;;;17.75;14.50;;;;;10.22;100.00;102239.38;5003557;28;45259;-69
2023/04/17 04:05:07;;;;;;;;;16.00;16.00;;;;;10.24;100.00;102237.38;5033702;28;45281;-69
2023/04/17 04:07:32;;;;;;;;;15.00;12.50;;;;;10.38;100.00;102239.97;4999280;28;45227;-69
2023/04/17 04:09:58;;;;;;;;;18.75;17.25;;;;;9.70;100.00;102239.41;5032919;28;48227;-69
2023/04/17 04:12:23;;;;;;;;;21.25;18.00;;;;;10.16;100.00;102235.19;5003468;28;45307;-70
2023/04/17 04:14:48;;;;;;;;;14.50;12.75;;;;;10.23;100.00;102238.34;5002629;28;45314;-68
2023/04/17 04:17:14;;;;;;;;;16.50;13.75;;;;;10.26;100.00;102240.00;5001352;28;45370;-70
2023/04/17 04:19:39;;;;;;;;;22.25;16.00;;;;;10.18;100.00;102236.97;5002783;28;46470;-70
2023/04/17 04:22:05;;;;;;;;;17.00;16.50;;;;;10.43;100.00;102239.66;5000601;28;45231;-70
2023/04/17 04:24:32;;;;;;;;;21.00;17.00;;;;;10.36;100.00;102225.66;5018536;28;45445;-70
2023/04/17 04:27:03;;;;;;;;;16.50;15.50;;;;;10.33;100.00;102247.59;5001537;28;45311;-69
2023/04/17 04:29:29;;;;;;;;;21.00;19.25;;;;;10.31;100.00;102227.81;5002182;28;45201;-69
2023/04/17 04:31:54;;;;;;;;;24.75;19.75;;;;;10.08;100.00;102258.47;4997902;28;45378;-69
2023/04/17 04:34:20;;;;;;;;;13.75;10.25;;;;;10.04;100.00;102246.06;5002894;28;45236;-71
2023/04/17 04:36:48;;;;;;;;;24.00;22.50;;;;;9.98;100.00;102252.78;5001185;28;45363;-69
2023/04/17 04:39:20;;;;;;;;;28.50;21.25;;;;;10.15;100.00;102257.88;5032430;28;48305;-70
2023/04/17 04:41:46;;;;;;;;;22.00;15.75;;;;;10.44;100.00;102244.13;4999533;28;45374;-70
2023/04/17 04:44:12;;;;;;;;;22.25;20.25;;;;;10.71;100.00;102250.25;5001627;28;45498;-70
2023/04/17 04:46:37;;;;;;;;;23.25;22.00;;;;;10.73;100.00;102256.44;4993340;28;45367;-70
2023/04/17 04:49:02;;;;;;;;;20.75;18.75;;;;;10.84;100.00;102264.66;5001868;28;54552;-70
2023/04/17 04:51:30;;;;;;;;;23.50;18.75;;;;;10.85;100.00;102257.38;4998610;28;45402;-69
2023/04/17 04:53:56;;;;;;;;;23.75;22.00;;;;;10.92;100.00;102267.69;5034135;28;45463;-70
2023/04/17 04:56:21;;;;;;;;;24.00;19.50;;;;;10.82;100.00;102258.47;4996157;28;45490;-70
2023/04/17 04:58:46;;;;;;;;;21.25;17.50;;;;;10.88;100.00;102260.72;5033557;28;46722;-69
2023/04/17 05:01:12;;;;;;;;;14.50;14.00;;;;;10.77;100.00;102243.47;5027854;28;45586;-68
2023/04/17 05:03:37;;;;;;;;;19.25;17.00;;;;;10.73;100.00;102250.13;5002418;28;45213;-70
2023/04/17 05:06:03;;;;;;;;;23.00;21.25;;;;;10.86;100.00;102257.28;4996340;28;44941;-71
2023/04/17 05:08:28;;;;;;;;;26.00;24.75;;;;;10.87;100.00;102253.56;5017355;28;47013;-71
2023/04/17 05:10:54;;;;;;;;;21.50;16.75;;;;;10.86;100.00;102254.56;4995647;28;45401;-71
2023/04/17 05:13:19;;;;;;;;;31.50;28.50;;;;;10.77;100.00;102259.78;5002490;28;45421;-70
2023/04/17 05:15:44;;;;;;;;;27.25;23.75;;;;;10.60;100.00;102252.88;4996094;28;45658;-70
2023/04/17 05:18:10;;;;;;;;;24.00;24.00;;;;;10.65;100.00;102269.72;5001056;28;45398;-70
2023/04/17 05:20:36;;;;;;;;;29.00;27.50;;;;;10.57;100.00;102255.81;4997761;28;45395;-70
2023/04/17 05:23:02;;;;;;;;;23.50;22.00;;;;;10.61;100.00;102249.16;5033307;28;45478;-70
2023/04/17 05:25:27;;;;;;;;;32.75;26.00;;;;;10.61;100.00;102267.31;5013862;28;45549;-70
2023/04/17 05:27:53;;;;;;;;;35.50;29.75;;;;;10.73;100.00;102261.88;5001445;28;46289;-70
2023/04/17 05:30:18;;;;;;;;;37.75;30.75;;;;;10.67;100.00;102262.31;5000864;28;45347;-69
2023/04/17 05:32:43;;;;;;;;;33.75;28.50;;;;;10.57;100.00;102269.41;5002916;28;45394;-70
2023/04/17 05:35:09;;;;;;;;;26.50;24.50;;;;;10.51;100.00;102256.28;5004061;28;45613;-70
2023/04/17 05:37:34;;;;;;;;;34.00;27.50;;;;;10.60;100.00;102266.47;5001347;28;46859;-70
2023/04/17 05:40:00;;;;;;;;;33.75;28.50;;;;;10.39;100.00;102266.16;5002382;28;52123;-70
2023/04/17 05:42:25;;;;;;;;;32.00;29.50;;;;;10.15;100.00;102278.78;5004415;28;45443;-69
2023/04/17 05:44:51;;;;;;;;;31.25;28.00;;;;;10.91;100.00;102271.38;5005008;28;45276;-70
2023/04/17 05:47:16;;;;;;;;;29.50;27.50;;;;;10.07;100.00;102268.44;5002617;28;46102;-69
2023/04/17 05:49:42;;;;;;;;;33.25;28.00;;;;;10.03;100.00;102272.34;5003794;28;45320;-69
2023/04/17 05:52:08;;;;;;;;;30.25;27.25;;;;;10.10;100.00;102270.94;5004081;28;45434;-71
2023/04/17 05:54:34;;;;;;;;;29.50;26.50;;;;;10.60;100.00;102266.47;5005718;28;45535;-70
2023/04/17 05:56:59;;;;;;;;;31.75;30.50;;;;;10.29;100.00;102267.81;5000233;28;46402;-70
2023/04/17 05:59:26;;;;;;;;;30.75;28.75;;;;;10.32;100.00;102272.16;5036230;28;45232;-70
2023/04/17 06:01:51;;;;;;;;;35.00;31.00;;;;;11.06;100.00;102268.50;5033970;28;45367;-70
2023/04/17 06:04:16;;;;;;;;;46.00;33.25;;;;;11.25;100.00;102266.16;5036274;28;45384;-69
2023/04/17 06:06:42;;;;;;;;;35.00;31.25;;;;;11.36;100.00;102252.59;5001840;28;45493;-69
2023/04/17 06:09:08;;;;;;;;;33.00;30.75;;;;;11.53;100.00;102268.53;5003057;28;45448;-71
2023/04/17 06:11:33;;;;;;;;;32.75;30.25;;;;;11.55;100.00;102265.66;5014362;28;45362;-71
2023/04/17 06:13:59;;;;;;;;;40.50;33.25;;;;;11.47;100.00;102259.97;5004312;28;45236;-70
2023/04/17 06:16:24;;;;;;;;;27.00;24.50;;;;;11.51;100.00;102265.03;5031813;28;46233;-70
2023/04/17 06:18:50;;;;;;;;;34.50;32.00;;;;;11.38;100.00;102275.13;5001842;28;45429;-70
2023/04/17 06:21:15;;;;;;;;;38.50;32.00;;;;;11.51;100.00;102273.19;5030464;28;45340;-71
2023/04/17 06:23:40;;;;;;;;;37.50;29.00;;;;;11.64;100.00;102279.44;5000745;28;45260;-70
2023/04/17 06:26:06;;;;;;;;;34.75;27.00;;;;;11.72;100.00;102273.41;5000847;28;47353;-70
2023/04/17 06:28:31;;;;;;;;;29.00;26.25;;;;;11.63;100.00;102268.66;4994989;28;45435;-71
2023/04/17 06:30:57;;;;;;;;;39.75;34.00;;;;;11.72;100.00;102276.13;4995258;28;45312;-72
2023/04/17 06:33:22;;;;;;;;;42.00;30.00;;;;;11.51;100.00;102284.09;4994946;28;46040;-72
2023/04/17 06:35:47;;;;;;;;;35.50;32.50;;;;;11.51;100.00;102275.91;5024820;28;47321;-72
2023/04/17 06:38:13;;;;;;;;;36.75;33.75;;;;;10.86;100.00;102270.88;5002396;28;45302;-72
2023/04/17 06:40:38;;;;;;;;;34.75;30.75;;;;;10.75;100.00;102284.38;5000672;28;45478;-72
2023/04/17 06:43:04;;;;;;;;;47.25;35.00;;;;;10.61;100.00;102294.50;4996122;28;45545;-73
2023/04/17 06:45:31;;;;;;;;;37.75;34.50;;;;;10.36;100.00;102306.28;4995265;28;46298;-70
2023/04/17 06:47:57;;;;;;;;;41.25;33.50;;;;;10.41;100.00;102301.38;5019303;28;45548;-71
2023/04/17 06:50:22;;;;;;;;;40.25;36.00;;;;;10.37;100.00;102299.88;5001968;28;45347;-71
2023/04/17 06:52:48;;;;;;;;;40.75;35.75;;;;;10.56;100.00;102292.13;5004142;28;45558;-71
2023/04/17 06:55:13;;;;;;;;;45.25;34.25;;;;;10.43;100.00;102285.84;5002319;28;46334;-72
2023/04/17 06:57:39;;;;;;;;;44.25;37.00;;;;;10.64;100.00;102291.56;5015073;28;45499;-71
2023/04/17 07:00:05;;;;;;;;;39.25;33.50;;;;;10.64;100.00;102316.03;5001178;28;45531;-71
2023/04/17 07:02:30;;;;;;;;;43.75;34.75;;;;;10.70;100.00;102304.72;5001943;28;45637;-71
2023/04/17 07:04:55;;;;;;;;;36.75;34.00;;;;;10.66;100.00;102295.06;5017676;28;46852;-74
2023/04/17 07:07:21;;;;;;;;;44.75;37.50;;;;;10.80;100.00;102305.81;5002772;28;45440;-71
2023/04/17 07:09:49;;;;;;;;;34.00;32.00;;;;;10.81;100.00;102296.66;5004097;28;45284;-71
2023/04/17 07:12:14;;;;;;;;;37.00;31.25;;;;;10.83;100.00;102308.28;5018046;28;45313;-71
2023/04/17 07:14:40;;;;;;;;;41.00;36.75;;;;;10.71;100.00;102284.72;5002200;28;45757;-71
2023/04/17 07:17:06;;;;;;;;;41.75;37.25;;;;;10.80;100.00;102306.66;5014847;28;45284;-71
2023/04/17 07:19:32;;;;;;;;;38.75;34.00;;;;;10.94;100.00;102308.38;5003993;28;45373;-71
2023/04/17 07:21:58;;;;;;;;;45.00;37.50;;;;;10.96;100.00;102319.97;5001502;28;45621;-71
2023/04/17 07:24:23;;;;;;;;;50.00;37.00;;;;;11.21;100.00;102319.06;5018003;28;48079;-71
2023/04/17 07:26:48;;;;;;;;;48.50;38.50;;;;;11.02;100.00;102326.84;5012479;28;45879;-72
2023/04/17 07:29:14;;;;;;;;;43.25;36.00;;;;;10.91;100.00;102342.09;5018058;28;45237;-71
2023/04/17 07:31:39;;;;;;;;;35.00;34.00;;;;;10.74;100.00;102322.56;5000595;28;45409;-70
2023/04/17 07:34:05;;;;;;;;;42.75;36.25;;;;;10.71;100.00;102318.22;5003294;28;45450;-73
2023/04/17 07:36:30;;;;;;;;;42.25;35.25;;;;;10.72;100.00;102328.09;4998698;28;45764;-71
2023/04/17 07:38:55;;;;;;;;;45.75;34.00;;;;;10.86;100.00;102343.41;5003520;28;45370;-72
2023/04/17 07:41:21;;;;;;;;;51.50;40.00;;;;;11.01;100.00;102336.84;5000582;28;45467;-71
2023/04/17 07:43:46;;;;;;;;;39.00;36.25;;;;;10.87;100.00;102323.41;5018408;28;46169;-71
2023/04/17 07:46:11;;;;;;;;;46.75;36.50;;;;;10.67;100.00;102286.78;4999000;28;45782;-71
2023/04/17 07:48:38;;;;;;;;;42.25;35.25;;;;;10.87;100.00;102345.16;5035419;28;45363;-70
2023/04/17 07:51:03;;;;;;;;;51.50;41.00;;;;;10.96;100.00;102347.19;5000600;28;45272;-71
2023/04/17 07:53:29;;;;;;;;;46.75;37.00;;;;;11.07;100.00;102335.53;5034911;28;47641;-72
2023/04/17 07:55:54;;;;;;;;;45.75;38.25;;;;;11.05;100.00;102332.91;5001812;28;44770;-71
2023/04/17 07:58:21;;;;;;;;;49.50;37.75;;;;;11.07;100.00;102330.97;5003621;28;45681;-71
2023/04/17 08:00:46;;;;;;;;;46.50;37.00;;;;;11.14;100.00;102337.69;5000790;28;45417;-72
2023/04/17 08:03:13;;;;;;;;;41.75;35.50;;;;;11.40;100.00;102340.28;5003245;28;45635;-72
2023/04/17 08:05:39;;;;;;;;;53.00;41.75;;;;;11.05;100.00;102332.03;4998878;28;45374;-71
2023/04/17 08:08:04;;;;;;;;;45.25;36.25;;;;;11.13;100.00;102327.78;5034962;28;45978;-72
2023/04/17 08:10:30;;;;;;;;;41.75;36.00;;;;;11.33;100.00;102332.59;5000656;28;45440;-71
2023/04/17 08:12:55;;;;;;;;;47.75;39.50;;;;;11.25;100.00;102328.75;5003162;28;46020;-71
2023/04/17 08:15:21;;;;;;;;;41.25;30.75;;;;;11.40;100.00;102333.00;4999276;28;45490;-73
2023/04/17 08:17:46;;;;;;;;;52.00;42.75;;;;;11.23;100.00;102320.69;5033584;28;45444;-71
2023/04/17 08:20:12;;;;;;;;;48.00;40.25;;;;;11.23;100.00;102327.97;5001543;28;45531;-71
2023/04/17 08:22:39;;;;;;;;;52.25;40.25;;;;;11.39;100.00;102339.47;5017407;28;47434;-71
2023/04/17 08:25:08;;;;;;;;;42.50;37.25;;;;;11.28;100.00;102306.72;5006807;28;45472;-71
2023/04/17 08:27:34;;;;;;;;;49.50;39.25;;;;;11.34;100.00;102338.91;4999158;28;45328;-72
2023/04/17 08:30:00;;;;;;;;;46.50;38.25;;;;;11.38;100.00;102320.53;5002591;28;45351;-72
2023/04/17 08:32:26;;;;;;;;;58.00;45.00;;;;;11.39;100.00;102328.56;4999521;28;45823;-71
2023/04/17 08:34:51;;;;;;;;;46.25;36.75;;;;;11.75;100.00;102334.97;5002384;28;45321;-70
2023/04/17 08:37:16;;;;;;;;;42.00;34.25;;;;;11.89;100.00;102330.19;5031440;28;45327;-71
2023/04/17 08:39:42;;;;;;;;;46.00;37.00;;;;;11.99;100.00;102344.81;5003641;28;45196;-71
2023/04/17 08:42:09;;;;;;;;;44.75;37.25;;;;;12.07;100.00;102333.31;5014021;28;47089;-71
2023/04/17 08:44:35;;;;;;;;;52.25;42.50;;;;;12.10;100.00;102335.81;5007518;28;45734;-71
2023/04/17 08:47:03;;;;;;;;;51.00;37.25;;;;;12.17;100.00;102334.34;5000833;28;45280;-71
2023/04/17 08:49:30;;;;;;;;;47.25;35.00;;;;;12.20;100.00;102323.19;5008038;28;45504;-71
2023/04/17 08:51:56;;;;;;;;;51.50;40.75;;;;;12.29;100.00;102327.06;4998618;28;45527;-72
2023/04/17 08:54:21;;;;;;;;;51.75;42.25;;;;;12.45;100.00;102323.00;5002764;28;45338;-71
2023/04/17 08:56:47;;;;;;;;;56.25;44.50;;;;;12.39;100.00;102323.50;4996015;28;45306;-71
2023/04/17 08:59:13;;;;;;;;;51.25;40.25;;;;;12.59;100.00;102329.22;5002954;28;45501;-71
2023/04/17 09:01:58;;;;;;;;;48.00;39.25;;;;;12.50;100.00;102309.00;4998928;28;46193;-71
2023/04/17 09:04:41;;;;;;;;;52.75;40.00;;;;;12.83;100.00;102319.91;4996202;28;45209;-71
2023/04/17 09:07:08;;;;;;;;;50.00;40.75;;;;;12.78;100.00;102313.94;5029958;28;45399;-72
2023/04/17 09:09:49;;;;;;;;;52.75;38.50;;;;;12.80;100.00;102316.56;5001782;28;45419;-71
2023/04/17 09:12:15;;;;;;;;;48.25;40.50;;;;;12.67;100.00;102326.75;5000266;28;45580;-72
2023/04/17 09:14:41;;;;;;;;;46.00;35.75;;;;;12.86;100.00;102332.44;5033868;28;45489;-71
2023/04/17 09:17:06;;;;;;;;;53.25;43.25;;;;;12.81;100.00;102304.66;4999328;28;45481;-71
2023/04/17 09:19:32;;;;;;;;;46.00;38.00;;;;;13.15;100.00;102325.47;5034848;28;45301;-71
2023/04/17 09:22:16;;;;;;;;;54.25;44.00;;;;;13.41;100.00;102330.66;5015664;28;47920;-71
2023/04/17 09:24:43;;;;;;;;;51.75;41.75;;;;;13.67;100.00;102315.66;5001742;28;45753;-72
2023/04/17 09:27:22;;;;;;;;;57.50;42.50;;;;;13.49;100.00;102311.75;4999624;28;45361;-71
2023/04/17 09:30:04;;;;;;;;;48.25;38.00;;;;;13.52;100.00;102322.41;5017495;28;45458;-71
2023/04/17 09:32:31;;;;;;;;;50.00;41.75;;;;;13.47;100.00;102314.63;4999743;28;46543;-72
2023/04/17 09:35:00;;;;;;;;;49.25;40.75;;;;;13.23;100.00;102312.06;5015992;28;45593;-71
2023/04/17 09:37:49;;;;;;;;;48.25;38.75;;;;;13.18;100.00;102329.81;5031380;28;45547;-71
2023/04/17 09:40:16;;;;;;;;;51.75;40.25;;;;;12.91;100.00;102330.22;5000422;28;45282;-72
2023/04/17 09:43:05;;;;;;;;;55.75;45.50;;;;;12.79;100.00;102342.09;5001436;28;45513;-71
2023/04/17 09:45:34;;;;;;;;;51.00;38.75;;;;;12.92;100.00;102326.50;4994201;28;45815;-71
2023/04/17 09:48:01;;;;;;;;;45.75;35.50;;;;;13.06;100.00;102328.97;5000164;28;45430;-72
2023/04/17 09:50:27;;;;;;;;;54.75;41.75;;;;;13.05;100.00;102327.22;5000619;28;45634;-72
2023/04/17 09:52:54;;;;;;;;;55.00;42.75;;;;;12.74;100.00;102333.44;5000318;28;46114;-71
2023/04/17 09:55:21;;;;;;;;;50.50;40.00;;;;;12.80;100.00;102327.47;5000017;28;45401;-71
2023/04/17 09:57:57;;;;;;;;;53.00;41.25;;;;;12.78;100.00;102318.56;4997250;28;45425;-71
2023/04/17 10:00:26;;;;;;;;;56.00;45.00;;;;;12.86;100.00;102335.16;4999216;28;45322;-72
2023/04/17 10:02:53;;;;;;;;;51.50;41.75;;;;;12.90;100.00;102333.06;4993489;28;46687;-71
2023/04/17 10:05:30;;;;;;;;;50.75;41.50;;;;;13.06;100.00;102323.50;5029828;28;45427;-72
2023/04/17 10:07:55;;;;;;;;;53.25;39.50;;;;;13.15;100.00;102327.38;5000187;28;45344;-72
2023/04/17 10:10:31;;;;;;;;;50.00;42.25;;;;;12.98;100.00;102315.06;5015388;28;45399;-72
2023/04/17 10:12:59;;;;;;;;;56.75;45.75;;;;;12.77;100.00;102317.69;4997147;28;46700;-72
2023/04/17 10:15:25;;;;;;;;;52.25;39.00;;;;;12.73;100.00;102331.69;5007718;28;46520;-70
2023/04/17 10:17:55;;;;;;;;;49.00;39.25;;;;;12.84;100.00;102326.25;5002944;28;45415;-71
2023/04/17 10:20:23;;;;;;;;;54.50;43.25;;;;;13.17;100.00;102328.97;5004511;28;45438;-71
2023/04/17 10:22:55;;;;;;;;;51.25;37.00;;;;;13.09;100.00;102319.63;5003490;28;45395;-70
2023/04/17 10:25:25;;;;;;;;;52.75;41.25;;;;;13.17;100.00;102318.03;5004214;28;45403;-71
2023/04/17 10:28:01;;;;;;;;;44.50;38.00;;;;;13.07;100.00;102313.47;4992044;28;45396;-71
2023/04/17 10:30:52;;;;;;;;;41.75;36.00;;;;;13.03;100.00;102322.88;5003014;28;45153;-71
2023/04/17 10:33:20;;;;;;;;;50.00;41.00;;;;;12.87;100.00;102317.78;5036265;28;47305;-72
2023/04/17 10:35:46;;;;;;;;;50.75;40.00;;;;;13.02;100.00;102311.09;5033110;28;45379;-72
2023/04/17 10:38:11;;;;;;;;;63.75;48.75;;;;;12.85;100.00;102314.34;5002663;28;45531;-72
2023/04/17 10:40:37;;;;;;;;;50.75;42.25;;;;;12.85;100.00;102319.81;5018735;28;45497;-72
2023/04/17 10:43:19;;;;;;;;;52.50;42.75;;;;;12.69;100.00;102322.91;5019783;28;48049;-71
2023/04/17 10:46:00;;;;;;;;;56.25;41.00;;;;;12.55;100.00;102309.53;5017409;28;45485;-72
2023/04/17 10:48:28;;;;;;;;;54.25;43.25;;;;;12.69;100.00;102320.19;5001328;28;45284;-72
2023/04/17 10:50:54;;;;;;;;;46.75;37.00;;;;;12.75;100.00;102314.22;4998968;28;45376;-72
2023/04/17 10:53:59;;;;;;;;;57.25;43.00;;;;;12.97;100.00;102312.47;5019280;28;46625;-71
2023/04/17 10:56:37;;;;;;;;;51.75;42.75;;;;;12.93;100.00;102306.38;4966485;28;45462;-73
2023/04/17 10:59:10;;;;;;;;;52.00;42.25;;;;;13.84;100.00;102312.34;5000344;28;45518;-72
2023/04/17 11:01:39;;;;;;;;;50.50;41.75;;;;;13.94;100.00;102309.72;4998795;28;45362;-72
2023/04/17 11:04:05;;;;;;;;;54.00;45.00;;;;;13.42;100.00;102297.75;5019851;28;47035;-73
2023/04/17 11:06:35;;;;;;;;;52.75;38.75;;;;;14.06;100.00;102303.16;5017005;28;45606;-73